Time;durP1;ratioP1;P1;durP2;ratioP2;P2;SDS_P1;SDS_P2;PMS_P1;PMS_P2;Temp;Humidity;BMP_temperature;BMP_pressure;BME280_temperature;BME280_humidity;BME280_pressure;Samples;Min_cycle;Max_cycle;Signal;HPM_P1;HPM_P2
2021/10/02 00:46:50;;;;;;;8.93;6.50;;;13.30;71.60;;;;;;5032806;28;20044;-46
2021/10/02 00:49:16;;;;;;;6.47;5.05;;;13.30;71.80;;;;;;5031148;28;20481;-47
2021/10/02 00:51:42;;;;;;;9.05;5.85;;;13.30;71.90;;;;;;5031059;28;20031;-47
2021/10/02 00:54:07;;;;;;;7.32;5.90;;;13.30;71.90;;;;;;5030544;28;20034;-47
2021/10/02 00:56:33;;;;;;;9.90;6.50;;;13.30;71.90;;;;;;5030034;28;20045;-47
2021/10/02 00:58:59;;;;;;;9.25;6.10;;;13.30;72.20;;;;;;5030590;28;20530;-46
2021/10/02 01:01:43;;;;;;;7.80;5.72;;;13.30;72.20;;;;;;5031712;28;20048;-47
2021/10/02 01:04:36;;;;;;;9.18;5.50;;;13.30;72.30;;;;;;5031064;28;20025;-47
2021/10/02 01:07:14;;;;;;;7.63;6.25;;;13.30;73.00;;;;;;5030142;28;20477;-47
2021/10/02 01:09:48;;;;;;;7.43;5.93;;;13.30;72.40;;;;;;5029963;28;20056;-47
2021/10/02 01:12:25;;;;;;;9.73;6.03;;;13.30;72.60;;;;;;5030312;28;20517;-47
2021/10/02 01:14:58;;;;;;;9.70;6.93;;;13.30;72.70;;;;;;5029634;28;20480;-47
2021/10/02 01:17:33;;;;;;;8.25;5.93;;;13.30;72.80;;;;;;5030336;28;20075;-47
2021/10/02 01:20:10;;;;;;;12.68;6.30;;;13.30;72.80;;;;;;5031211;28;20036;-47
2021/10/02 01:22:54;;;;;;;6.80;5.60;;;13.30;73.00;;;;;;5030344;28;20765;-47
2021/10/02 01:26:05;;;;;;;8.73;6.53;;;13.30;73.00;;;;;;5029917;28;20021;-46
2021/10/02 01:28:35;;;;;;;11.32;5.85;;;13.30;72.90;;;;;;5030168;28;20041;-47
2021/10/02 01:47:14;;;;;;;8.63;6.20;;;13.30;73.60;;;;;;5031882;28;20032;-47
2021/10/02 01:49:45;;;;;;;8.48;5.93;;;13.30;74.50;;;;;;5030005;28;20097;-47
2021/10/02 01:52:14;;;;;;;10.60;7.40;;;13.30;73.80;;;;;;5030435;28;20048;-47
2021/10/02 01:54:42;;;;;;;9.23;6.85;;;13.30;74.00;;;;;;5030205;28;20036;-47
2021/10/02 01:57:09;;;;;;;9.93;7.35;;;13.20;74.00;;;;;;5029315;28;20032;-47
2021/10/02 01:59:36;;;;;;;9.90;8.05;;;13.20;74.20;;;;;;5030093;28;20025;-47
2021/10/02 02:02:05;;;;;;;12.23;8.23;;;13.20;74.20;;;;;;5031227;28;20087;-47
2021/10/02 02:04:32;;;;;;;8.43;6.38;;;13.20;74.80;;;;;;5030258;28;20030;-47
2021/10/02 02:06:59;;;;;;;11.50;7.45;;;13.20;74.10;;;;;;5030436;28;20038;-47
2021/10/02 02:09:30;;;;;;;10.13;7.18;;;13.20;74.00;;;;;;5030375;28;20037;-47
2021/10/02 02:11:56;;;;;;;9.77;8.60;;;13.10;73.80;;;;;;5030044;28;20033;-47
2021/10/02 02:14:24;;;;;;;8.60;6.88;;;13.10;73.80;;;;;;5030574;28;21982;-47
2021/10/02 02:16:50;;;;;;;8.88;7.43;;;13.10;73.90;;;;;;5030329;28;20033;-47
2021/10/02 02:19:19;;;;;;;9.13;6.85;;;13.00;73.70;;;;;;5030401;28;20346;-47
2021/10/02 02:21:46;;;;;;;7.65;6.30;;;13.00;73.90;;;;;;5029234;28;20393;-46
2021/10/02 02:24:12;;;;;;;9.02;7.10;;;13.00;73.80;;;;;;5029422;28;20167;-47
2021/10/02 02:26:39;;;;;;;10.10;7.68;;;13.00;73.90;;;;;;5028504;28;20034;-47
2021/10/02 02:29:05;;;;;;;10.48;7.70;;;12.90;73.90;;;;;;5029800;28;20045;-47
2021/10/02 02:31:32;;;;;;;10.50;8.15;;;12.90;74.00;;;;;;5029655;28;20128;-47
2021/10/02 02:33:59;;;;;;;11.40;8.70;;;12.90;74.00;;;;;;5029452;28;20029;-47
2021/10/02 02:36:25;;;;;;;13.02;9.68;;;12.90;74.00;;;;;;5029584;28;20554;-47
2021/10/02 02:38:51;;;;;;;13.18;9.98;;;12.90;74.00;;;;;;5030961;28;20042;-46
2021/10/02 02:41:17;;;;;;;16.27;11.45;;;12.90;74.10;;;;;;5028498;28;20109;-47
2021/10/02 02:43:43;;;;;;;11.98;8.88;;;12.90;74.10;;;;;;5029421;28;20036;-47
2021/10/02 02:46:10;;;;;;;11.80;9.45;;;12.90;74.10;;;;;;5029633;28;20493;-47
2021/10/02 02:48:57;;;;;;;13.43;10.15;;;12.90;74.20;;;;;;5028938;28;20108;-47
2021/10/02 02:51:33;;;;;;;11.63;9.20;;;12.90;74.20;;;;;;5029577;28;20025;-47
2021/10/02 02:54:30;;;;;;;14.93;9.50;;;12.90;74.30;;;;;;5029097;28;20021;-47
2021/10/02 02:57:02;;;;;;;15.90;9.70;;;12.90;74.00;;;;;;5018143;28;20487;-47
2021/10/02 02:59:36;;;;;;;12.65;10.02;;;12.90;73.90;;;;;;5028697;28;20136;-48
2021/10/02 03:02:04;;;;;;;12.68;9.05;;;12.90;74.10;;;;;;5029478;28;20424;-47
2021/10/02 03:04:33;;;;;;;16.75;12.73;;;13.00;74.20;;;;;;5029111;28;20021;-47
2021/10/02 03:07:00;;;;;;;17.63;12.23;;;13.00;74.10;;;;;;5029304;28;20025;-47
2021/10/02 03:09:28;;;;;;;16.35;11.80;;;13.00;74.10;;;;;;5027985;28;20431;-47
2021/10/02 03:11:56;;;;;;;17.08;12.77;;;13.00;73.90;;;;;;5028498;28;20099;-47
2021/10/02 03:14:23;;;;;;;15.50;11.32;;;13.00;73.90;;;;;;5028056;28;20076;-47
2021/10/02 03:16:52;;;;;;;16.23;11.75;;;13.00;73.80;;;;;;5028976;28;20381;-47
2021/10/02 03:19:20;;;;;;;17.63;12.00;;;12.90;73.80;;;;;;5028718;28;20519;-47
2021/10/02 03:21:46;;;;;;;19.17;13.82;;;12.90;73.80;;;;;;5029025;28;20084;-47
2021/10/02 03:24:15;;;;;;;15.32;11.98;;;12.90;73.80;;;;;;5028300;28;20033;-47
2021/10/02 03:26:41;;;;;;;17.10;13.32;;;12.90;73.70;;;;;;5028327;28;20509;-47
2021/10/02 03:29:08;;;;;;;16.55;11.93;;;12.80;73.80;;;;;;5027618;28;20128;-47
2021/10/02 03:31:34;;;;;;;16.70;12.20;;;12.80;74.30;;;;;;5028617;28;20029;-47
2021/10/02 03:34:01;;;;;;;15.25;11.40;;;12.80;73.60;;;;;;5027907;28;20033;-46
2021/10/02 03:36:28;;;;;;;16.05;11.90;;;12.80;73.80;;;;;;5027603;28;20140;-47
2021/10/02 03:38:55;;;;;;;17.60;12.18;;;12.70;73.50;;;;;;5028997;28;20049;-47
2021/10/02 03:41:23;;;;;;;16.52;12.35;;;12.70;73.50;;;;;;5029438;28;20021;-47
2021/10/02 03:43:48;;;;;;;13.68;10.50;;;12.70;73.60;;;;;;5027732;28;20033;-47
2021/10/02 03:46:14;;;;;;;16.63;12.32;;;12.60;73.50;;;;;;5028450;28;20075;-47
2021/10/02 03:48:40;;;;;;;15.25;11.57;;;12.60;73.40;;;;;;5028411;28;20029;-47
2021/10/02 03:51:05;;;;;;;14.68;11.52;;;12.60;73.40;;;;;;5028200;28;20847;-47
2021/10/02 03:53:31;;;;;;;13.48;11.30;;;12.60;73.40;;;;;;5027391;28;21903;-47
2021/10/02 03:55:58;;;;;;;13.85;10.30;;;12.60;73.40;;;;;;5028173;28;20123;-48
2021/10/02 03:58:24;;;;;;;13.30;10.32;;;12.50;73.30;;;;;;5028398;28;20026;-47
2021/10/02 04:00:50;;;;;;;13.13;10.55;;;12.50;73.20;;;;;;5028500;28;20041;-47
2021/10/02 04:03:16;;;;;;;13.73;9.32;;;12.50;73.20;;;;;;5027866;28;20120;-47
2021/10/02 04:05:41;;;;;;;13.25;9.93;;;12.50;73.10;;;;;;5027295;28;20083;-46
2021/10/02 04:08:07;;;;;;;12.52;9.93;;;12.50;72.90;;;;;;5027952;28;20381;-47
2021/10/02 04:10:33;;;;;;;12.43;8.85;;;12.50;72.90;;;;;;5027874;28;20033;-47
2021/10/02 04:13:01;;;;;;;14.32;9.93;;;12.40;72.70;;;;;;5027932;28;20044;-47
2021/10/02 04:15:27;;;;;;;10.35;8.32;;;12.40;73.40;;;;;;5027746;28;20362;-48
2021/10/02 04:17:55;;;;;;;10.52;8.48;;;12.50;72.80;;;;;;5027426;28;20040;-47
2021/10/02 04:20:21;;;;;;;11.55;8.20;;;12.50;72.50;;;;;;5027261;28;20024;-47
2021/10/02 04:22:46;;;;;;;12.73;9.50;;;12.50;72.10;;;;;;5027796;28;20025;-47
2021/10/02 04:25:13;;;;;;;10.68;7.95;;;12.50;71.70;;;;;;5027582;28;20036;-47
2021/10/02 04:27:39;;;;;;;14.75;8.88;;;12.50;71.40;;;;;;5027269;28;20033;-47
2021/10/02 04:30:05;;;;;;;11.85;8.43;;;12.50;70.90;;;;;;5027778;28;20385;-47
2021/10/02 04:32:31;;;;;;;10.23;7.65;;;12.50;70.50;;;;;;5028103;28;20465;-47
2021/10/02 04:34:58;;;;;;;14.07;8.98;;;12.50;70.30;;;;;;5027225;28;20031;-47
2021/10/02 04:37:24;;;;;;;11.77;8.32;;;12.50;70.20;;;;;;5028466;28;20029;-47
2021/10/02 04:39:50;;;;;;;10.40;7.63;;;12.50;70.10;;;;;;5027792;28;20116;-47
2021/10/02 04:42:15;;;;;;;9.70;7.45;;;12.50;70.10;;;;;;5027022;28;20362;-48
2021/10/02 04:44:41;;;;;;;9.13;7.45;;;12.50;70.70;;;;;;5027356;28;20034;-47
2021/10/02 04:47:07;;;;;;;8.82;7.88;;;12.50;70.10;;;;;;5028150;28;20553;-48
2021/10/02 04:49:32;;;;;;;10.93;7.90;;;12.60;70.10;;;;;;5027388;28;20112;-46
2021/10/02 04:51:58;;;;;;;10.80;7.97;;;12.60;70.10;;;;;;5027493;28;20044;-48
2021/10/02 04:54:24;;;;;;;10.70;7.65;;;12.60;70.00;;;;;;5027880;28;20037;-47
2021/10/02 04:56:49;;;;;;;11.32;8.05;;;12.60;70.00;;;;;;5025970;28;20048;-47
2021/10/02 04:59:15;;;;;;;13.50;8.63;;;12.70;70.10;;;;;;5023334;28;20029;-47
2021/10/02 05:01:41;;;;;;;12.10;9.13;;;12.70;69.70;;;;;;5027413;28;20129;-47
2021/10/02 05:04:06;;;;;;;12.75;8.27;;;12.70;69.70;;;;;;5029847;28;20030;-47
2021/10/02 05:06:32;;;;;;;12.70;8.80;;;12.80;69.50;;;;;;5030603;28;20711;-47
2021/10/02 05:08:58;;;;;;;13.70;8.00;;;12.80;69.50;;;;;;5031659;28;20032;-47
2021/10/02 05:11:24;;;;;;;14.05;8.90;;;12.80;69.40;;;;;;5030819;28;20079;-47
2021/10/02 05:13:49;;;;;;;10.60;7.60;;;12.90;69.30;;;;;;5031480;28;20091;-47
2021/10/02 05:16:15;;;;;;;11.85;8.73;;;12.90;69.20;;;;;;5029880;28;20120;-47
2021/10/02 05:18:41;;;;;;;10.10;8.50;;;13.00;69.10;;;;;;5029949;28;20073;-47
2021/10/02 05:21:07;;;;;;;13.82;8.77;;;13.00;69.10;;;;;;5030634;28;20036;-47
2021/10/02 05:23:33;;;;;;;10.88;8.15;;;13.00;68.90;;;;;;5030926;28;20079;-47
2021/10/02 05:25:58;;;;;;;13.18;7.80;;;13.00;68.90;;;;;;5030723;28;20083;-47
2021/10/02 05:28:24;;;;;;;13.98;8.35;;;13.10;68.90;;;;;;5030727;28;20040;-46
2021/10/02 05:30:51;;;;;;;13.70;8.82;;;13.10;69.00;;;;;;5029999;28;20032;-47
2021/10/02 05:33:17;;;;;;;13.35;8.70;;;13.10;69.00;;;;;;5028890;28;20029;-47
2021/10/02 05:35:42;;;;;;;10.93;7.75;;;13.10;69.00;;;;;;5029772;28;20051;-47
2021/10/02 05:38:08;;;;;;;12.60;8.50;;;13.10;69.00;;;;;;5031470;28;20049;-47
2021/10/02 05:40:34;;;;;;;11.70;8.38;;;13.10;69.00;;;;;;5031412;28;20036;-47
2021/10/02 05:43:02;;;;;;;11.35;8.13;;;13.10;68.90;;;;;;5030124;28;20511;-46
2021/10/02 05:45:28;;;;;;;12.50;9.10;;;13.10;68.90;;;;;;5030115;28;20477;-47
2021/10/02 05:47:54;;;;;;;9.82;7.60;;;13.10;68.80;;;;;;5030803;28;20118;-47
2021/10/02 05:50:19;;;;;;;12.13;7.72;;;13.10;68.80;;;;;;5030563;28;20070;-47
2021/10/02 05:52:45;;;;;;;12.40;8.10;;;13.10;68.70;;;;;;5029615;28;20029;-47
2021/10/02 05:55:12;;;;;;;10.05;7.00;;;13.10;68.40;;;;;;5029889;28;20030;-47
2021/10/02 05:57:38;;;;;;;8.93;6.75;;;13.10;68.00;;;;;;5029575;28;20102;-47
2021/10/02 06:00:08;;;;;;;10.55;7.18;;;13.20;67.60;;;;;;5029770;28;20524;-48
2021/10/02 06:02:34;;;;;;;8.65;6.50;;;13.20;67.50;;;;;;5028580;28;20049;-47
2021/10/02 06:04:59;;;;;;;8.35;6.57;;;13.20;67.10;;;;;;5028355;28;20026;-47
2021/10/02 06:07:25;;;;;;;7.00;5.40;;;13.30;66.70;;;;;;5027093;28;20040;-47
2021/10/02 06:09:51;;;;;;;7.60;6.30;;;13.40;66.30;;;;;;5030143;28;20026;-47
2021/10/02 06:12:20;;;;;;;10.65;6.53;;;13.40;66.00;;;;;;5029547;28;20037;-47
2021/10/02 06:14:46;;;;;;;8.52;6.00;;;13.50;66.60;;;;;;5028455;28;20025;-46
2021/10/02 06:17:11;;;;;;;9.93;5.97;;;13.50;65.70;;;;;;5028660;28;20040;-47
2021/10/02 06:19:37;;;;;;;8.93;6.28;;;13.60;65.90;;;;;;5029242;28;20029;-47
2021/10/02 06:22:03;;;;;;;7.90;6.05;;;13.60;65.90;;;;;;5029656;28;20021;-47
2021/10/02 06:24:30;;;;;;;9.23;6.57;;;13.70;65.90;;;;;;5029193;28;20104;-47
2021/10/02 06:26:56;;;;;;;9.48;6.05;;;13.70;66.40;;;;;;5028182;28;20022;-47
2021/10/02 06:29:22;;;;;;;7.85;5.93;;;13.80;66.80;;;;;;5026662;28;20052;-47
2021/10/02 06:31:48;;;;;;;8.18;5.72;;;13.70;67.10;;;;;;5027998;28;20041;-47
2021/10/02 06:34:14;;;;;;;9.43;6.38;;;13.80;67.50;;;;;;5027702;28;20500;-47
2021/10/02 06:36:43;;;;;;;8.05;6.80;;;13.70;68.00;;;;;;5029852;28;20086;-47
2021/10/02 06:39:10;;;;;;;7.95;5.78;;;13.70;68.30;;;;;;5030329;28;20069;-47
2021/10/02 06:41:36;;;;;;;12.95;7.20;;;13.70;68.50;;;;;;5028182;28;20025;-46
2021/10/02 06:44:02;;;;;;;9.82;6.90;;;13.70;68.80;;;;;;5027329;28;20041;-47
2021/10/02 06:46:28;;;;;;;10.07;7.20;;;13.70;69.00;;;;;;5026961;28;20029;-47
2021/10/02 06:48:54;;;;;;;9.43;6.97;;;13.70;69.20;;;;;;5026231;28;20037;-47
2021/10/02 06:51:19;;;;;;;7.68;6.55;;;13.80;69.60;;;;;;5028246;28;20064;-47
2021/10/02 06:53:45;;;;;;;8.77;6.72;;;13.80;70.00;;;;;;5028829;28;20041;-47
2021/10/02 06:56:11;;;;;;;7.80;6.28;;;13.80;70.60;;;;;;5028873;28;20041;-47
2021/10/02 06:58:36;;;;;;;9.95;7.03;;;13.90;71.10;;;;;;5029168;28;20404;-47
2021/10/02 07:01:02;;;;;;;8.63;6.15;;;14.00;71.40;;;;;;5028890;28;20029;-47
2021/10/02 07:03:28;;;;;;;8.65;7.03;;;14.00;71.50;;;;;;5027880;28;20494;-47
2021/10/02 07:05:53;;;;;;;10.23;7.45;;;14.00;71.40;;;;;;5025351;28;20029;-47
2021/10/02 07:08:19;;;;;;;8.55;6.63;;;14.00;71.80;;;;;;5027437;28;20037;-47
2021/10/02 07:10:45;;;;;;;8.75;6.28;;;14.00;71.80;;;;;;5027738;28;20033;-47
2021/10/02 07:13:10;;;;;;;10.50;8.20;;;14.00;72.10;;;;;;5027551;28;20040;-47
2021/10/02 07:15:36;;;;;;;10.75;7.70;;;14.00;72.80;;;;;;5028548;28;20025;-47
2021/10/02 07:18:02;;;;;;;10.65;7.50;;;14.00;72.10;;;;;;5028153;28;20115;-47
2021/10/02 07:20:28;;;;;;;11.35;8.25;;;14.00;72.30;;;;;;5028574;28;20029;-47
2021/10/02 07:22:53;;;;;;;11.00;7.75;;;14.10;72.20;;;;;;5027077;28;20072;-47
2021/10/02 07:25:22;;;;;;;10.82;8.15;;;14.00;72.00;;;;;;5027908;28;20029;-46
2021/10/02 07:27:48;;;;;;;10.20;7.80;;;14.10;71.90;;;;;;5028389;28;20029;-48
2021/10/02 07:30:14;;;;;;;10.25;7.90;;;14.10;71.60;;;;;;5028035;28;21529;-47
2021/10/02 07:32:40;;;;;;;9.50;7.20;;;14.00;71.50;;;;;;5028212;28;20021;-48
2021/10/02 07:35:07;;;;;;;9.27;6.35;;;14.00;71.60;;;;;;5028058;28;20609;-47
2021/10/02 07:37:33;;;;;;;12.40;7.70;;;14.00;71.60;;;;;;5029767;28;20026;-47
2021/10/02 07:39:59;;;;;;;13.55;7.40;;;14.00;71.70;;;;;;5027889;28;20041;-47
2021/10/02 07:42:25;;;;;;;8.82;6.75;;;14.00;71.80;;;;;;5028325;28;20029;-48
2021/10/02 07:44:57;;;;;;;10.07;7.85;;;14.00;71.90;;;;;;5025878;28;20117;-47
2021/10/02 07:47:24;;;;;;;10.77;7.43;;;14.00;72.00;;;;;;5023125;28;20116;-47
2021/10/02 07:49:50;;;;;;;9.23;7.32;;;14.00;71.70;;;;;;5027792;28;20037;-48
2021/10/02 07:52:19;;;;;;;8.38;6.45;;;14.00;71.60;;;;;;5027406;28;20106;-47
2021/10/02 07:54:46;;;;;;;8.60;6.70;;;14.00;71.60;;;;;;5026457;28;20397;-47
2021/10/02 07:57:12;;;;;;;10.00;6.93;;;14.10;71.50;;;;;;5026648;28;20052;-47
2021/10/02 07:59:38;;;;;;;9.43;6.53;;;14.10;70.90;;;;;;5026310;28;20022;-47
2021/10/02 08:02:07;;;;;;;8.43;6.28;;;14.10;70.50;;;;;;5027297;28;20065;-47
2021/10/02 08:04:33;;;;;;;8.50;6.57;;;14.10;70.20;;;;;;5026952;28;20025;-47
2021/10/02 08:07:00;;;;;;;8.05;5.85;;;14.00;70.00;;;;;;5027074;28;20420;-47
2021/10/02 08:09:25;;;;;;;7.30;5.20;;;14.00;69.50;;;;;;5028725;28;20091;-47
2021/10/02 08:11:51;;;;;;;9.23;5.68;;;13.90;69.40;;;;;;5027724;28;20034;-47
2021/10/02 08:14:17;;;;;;;6.15;4.80;;;13.90;69.40;;;;;;5028054;28;20032;-48
2021/10/02 08:16:46;;;;;;;6.68;4.97;;;14.00;69.40;;;;;;5027425;28;20021;-47
2021/10/02 08:19:12;;;;;;;6.68;4.72;;;14.00;69.00;;;;;;5026684;28;20072;-47
2021/10/02 08:21:40;;;;;;;5.43;4.60;;;14.00;68.70;;;;;;5028049;28;20021;-47
2021/10/02 08:24:06;;;;;;;6.38;4.63;;;14.00;68.30;;;;;;5028120;28;20105;-47
2021/10/02 08:26:32;;;;;;;4.90;4.05;;;14.00;68.20;;;;;;5027664;28;20032;-47
2021/10/02 08:28:59;;;;;;;5.65;4.38;;;14.00;68.30;;;;;;5026592;28;20034;-47
2021/10/02 08:31:25;;;;;;;8.90;5.20;;;14.00;68.40;;;;;;5027560;28;20029;-47
2021/10/02 08:33:52;;;;;;;6.88;5.00;;;14.00;68.20;;;;;;5009942;28;20021;-47
2021/10/02 08:36:18;;;;;;;4.93;4.10;;;14.00;68.20;;;;;;5026594;28;20040;-47
2021/10/02 08:38:44;;;;;;;6.20;4.90;;;14.00;68.50;;;;;;5029922;28;20457;-47
2021/10/02 08:41:11;;;;;;;5.88;4.38;;;14.00;68.40;;;;;;5031585;28;20021;-47
2021/10/02 08:43:38;;;;;;;6.25;4.45;;;14.10;68.60;;;;;;5031175;28;20030;-47
2021/10/02 08:46:07;;;;;;;6.07;5.07;;;14.10;68.30;;;;;;5031417;28;20029;-47
2021/10/02 08:48:33;;;;;;;5.28;4.28;;;14.10;68.10;;;;;;5031459;28;20018;-47
2021/10/02 08:51:02;;;;;;;6.85;5.40;;;14.00;68.10;;;;;;5031287;28;21456;-47
2021/10/02 08:53:30;;;;;;;6.65;5.13;;;14.10;67.20;;;;;;5031478;28;20029;-47
2021/10/02 08:56:00;;;;;;;6.10;4.70;;;14.10;66.80;;;;;;5030370;28;20488;-47
2021/10/02 08:58:26;;;;;;;6.83;4.40;;;14.00;66.70;;;;;;5031398;28;20022;-48
2021/10/02 09:00:52;;;;;;;6.57;4.47;;;14.00;66.50;;;;;;5031532;28;20385;-47
2021/10/02 09:03:21;;;;;;;5.93;4.32;;;14.00;66.40;;;;;;5031731;28;20076;-47
2021/10/02 09:05:47;;;;;;;6.90;4.32;;;14.00;66.50;;;;;;5030321;28;20469;-47
2021/10/02 09:08:13;;;;;;;5.10;3.80;;;14.00;66.20;;;;;;5030763;28;20053;-47
2021/10/02 09:10:40;;;;;;;8.48;4.05;;;14.00;66.30;;;;;;5031925;28;20381;-47
2021/10/02 09:13:06;;;;;;;4.57;3.90;;;14.00;65.90;;;;;;5031100;28;20038;-47
2021/10/02 09:15:33;;;;;;;4.65;3.80;;;13.90;65.70;;;;;;5030313;28;20052;-47
2021/10/02 09:17:59;;;;;;;4.63;3.58;;;13.90;65.30;;;;;;5012336;28;20037;-47
2021/10/02 09:20:25;;;;;;;4.57;3.80;;;13.90;64.90;;;;;;5030684;28;20044;-47
2021/10/02 09:23:03;;;;;;;5.90;4.13;;;13.90;65.10;;;;;;5030049;28;20040;-47
2021/10/02 09:25:30;;;;;;;6.38;3.90;;;13.90;64.90;;;;;;5029336;28;20029;-47
2021/10/02 09:28:14;;;;;;;7.72;4.10;;;13.90;65.30;;;;;;5028941;28;20052;-47
2021/10/02 09:30:42;;;;;;;5.53;3.80;;;13.80;64.70;;;;;;5030703;28;20504;-47
2021/10/02 09:33:12;;;;;;;6.00;3.95;;;13.80;64.90;;;;;;5030138;28;20057;-47
2021/10/02 09:35:40;;;;;;;4.40;3.80;;;13.80;65.60;;;;;;5030774;28;20031;-47
2021/10/02 09:38:09;;;;;;;5.47;4.10;;;13.80;64.90;;;;;;5030513;28;20060;-47
2021/10/02 09:40:35;;;;;;;4.10;3.70;;;13.80;64.70;;;;;;5031558;28;20030;-47
2021/10/02 09:43:04;;;;;;;4.68;3.40;;;13.80;64.60;;;;;;5031176;28;20028;-47
2021/10/02 09:45:38;;;;;;;4.55;3.38;;;13.80;64.10;;;;;;5029643;28;20107;-47
2021/10/02 09:48:07;;;;;;;4.68;3.42;;;13.80;63.90;;;;;;5029949;28;20045;-47
2021/10/02 09:50:38;;;;;;;6.90;3.45;;;13.90;63.80;;;;;;5029090;28;20034;-47
2021/10/02 09:53:07;;;;;;;;;;;13.90;63.00;;;;;;5030782;28;20088;-47
2021/10/02 09:55:34;;;;;;;3.85;3.30;;;13.80;61.90;;;;;;5029819;28;19999;-47
2021/10/02 09:58:04;;;;;;;5.97;3.50;;;13.80;62.50;;;;;;5029795;28;20026;-47
2021/10/02 10:00:31;;;;;;;4.45;3.58;;;13.80;62.10;;;;;;5030408;28;20022;-48
2021/10/02 10:02:57;;;;;;;4.80;3.40;;;13.80;62.20;;;;;;5029684;28;20029;-47
2021/10/02 10:05:30;;;;;;;4.22;3.70;;;13.80;62.30;;;;;;5030062;28;20018;-47
2021/10/02 10:08:02;;;;;;;5.93;3.50;;;13.80;62.00;;;;;;5030139;28;20409;-47
2021/10/02 10:10:29;;;;;;;4.07;3.35;;;13.80;61.20;;;;;;5029334;28;20060;-47
2021/10/02 10:12:55;;;;;;;3.78;2.85;;;13.80;61.00;;;;;;5029870;28;20087;-47
2021/10/02 10:15:39;;;;;;;3.58;2.80;;;13.80;60.30;;;;;;5030116;28;20053;-47
2021/10/02 10:18:26;;;;;;;3.45;3.00;;;13.80;59.90;;;;;;5029719;28;20037;-47
2021/10/02 10:20:58;;;;;;;4.05;3.65;;;13.90;60.20;;;;;;5029423;28;20124;-47
2021/10/02 10:23:27;;;;;;;4.75;3.50;;;13.90;60.00;;;;;;5030121;28;20025;-47
2021/10/02 10:25:56;;;;;;;3.47;3.15;;;13.90;59.70;;;;;;5029920;28;20103;-47
2021/10/02 10:28:24;;;;;;;4.78;3.08;;;13.90;59.50;;;;;;5030161;28;20033;-47
2021/10/02 10:30:52;;;;;;;3.50;3.17;;;14.00;59.40;;;;;;5028854;28;20022;-47
2021/10/02 10:33:20;;;;;;;3.40;3.10;;;14.00;59.50;;;;;;5029612;28;20029;-47
2021/10/02 10:35:47;;;;;;;4.72;3.10;;;14.00;59.00;;;;;;5030681;28;20048;-47
2021/10/02 10:38:18;;;;;;;3.55;3.10;;;14.00;59.00;;;;;;5030680;28;20041;-47
2021/10/02 10:40:45;;;;;;;3.67;2.85;;;14.00;59.40;;;;;;5029274;28;20021;-47
2021/10/02 10:43:10;;;;;;;3.08;2.80;;;14.00;58.80;;;;;;5029828;28;20025;-48
2021/10/02 10:45:36;;;;;;;10.00;3.50;;;14.00;59.60;;;;;;5029393;28;20036;-47
2021/10/02 10:48:06;;;;;;;4.65;3.25;;;14.00;58.40;;;;;;5028980;28;20504;-47
2021/10/02 10:50:39;;;;;;;3.17;2.88;;;14.00;58.50;;;;;;5028976;28;20469;-47
2021/10/02 10:53:06;;;;;;;3.55;3.17;;;14.00;58.00;;;;;;5028644;28;20113;-47
2021/10/02 10:55:33;;;;;;;4.15;3.05;;;14.00;58.30;;;;;;5029267;28;20068;-47
2021/10/02 10:58:02;;;;;;;3.72;2.83;;;14.00;58.20;;;;;;5028591;28;20021;-47
2021/10/02 11:00:30;;;;;;;4.25;3.10;;;14.00;58.30;;;;;;5028714;28;20034;-47
2021/10/02 11:03:07;;;;;;;3.88;3.20;;;14.00;58.20;;;;;;5029314;28;20555;-47
2021/10/02 11:05:39;;;;;;;5.25;3.13;;;14.00;57.90;;;;;;5029397;28;20034;-47
2021/10/02 11:08:04;;;;;;;3.67;2.78;;;14.00;57.80;;;;;;5028768;28;20033;-47
2021/10/02 11:10:48;;;;;;;3.65;2.92;;;14.00;58.00;;;;;;5028688;28;20017;-47
2021/10/02 11:13:31;;;;;;;4.53;3.40;;;14.00;57.80;;;;;;5029359;28;20460;-47
2021/10/02 11:15:57;;;;;;;3.97;3.30;;;14.00;58.00;;;;;;5030391;28;20461;-46
2021/10/02 11:18:48;;;;;;;4.97;3.00;;;14.10;57.70;;;;;;5029032;28;20036;-48
2021/10/02 11:21:18;;;;;;;4.38;3.10;;;14.00;56.90;;;;;;5028574;28;20109;-47
2021/10/02 11:24:09;;;;;;;3.23;2.93;;;14.10;57.40;;;;;;5033042;28;20113;-47
2021/10/02 11:26:57;;;;;;;3.47;2.72;;;14.10;57.50;;;;;;5028992;28;20116;-47
2021/10/02 11:29:27;;;;;;;4.88;3.22;;;14.10;57.70;;;;;;5033828;28;20064;-47
2021/10/02 11:32:21;;;;;;;4.47;2.90;;;14.10;57.80;;;;;;5033286;28;20028;-47
2021/10/02 11:35:11;;;;;;;2.97;2.53;;;14.10;56.90;;;;;;5025712;28;20476;-47
2021/10/02 11:38:10;;;;;;;3.25;2.95;;;14.20;57.20;;;;;;5032408;28;20028;-46
2021/10/02 11:40:40;;;;;;;3.03;2.60;;;14.20;56.80;;;;;;5000703;28;20049;-47
2021/10/02 11:43:14;;;;;;;3.25;2.95;;;14.20;57.30;;;;;;5033262;28;20025;-47
2021/10/02 11:45:41;;;;;;;3.33;2.63;;;14.20;57.20;;;;;;5033349;28;20424;-47
2021/10/02 11:48:12;;;;;;;3.47;2.85;;;14.20;57.10;;;;;;5033085;28;20460;-47
2021/10/02 11:50:39;;;;;;;3.35;3.03;;;14.20;57.10;;;;;;5020381;28;20152;-47
2021/10/02 11:53:04;;;;;;;3.13;2.70;;;14.20;57.00;;;;;;5033212;28;20045;-47
2021/10/02 11:55:33;;;;;;;3.95;3.05;;;14.30;57.10;;;;;;5032480;28;20386;-46
2021/10/02 11:58:08;;;;;;;3.33;2.80;;;14.30;57.10;;;;;;5032198;28;20048;-47
2021/10/02 12:00:45;;;;;;;4.28;2.72;;;14.30;56.70;;;;;;5032914;28;20080;-47
2021/10/02 12:03:12;;;;;;;4.38;2.80;;;14.30;56.50;;;;;;5033310;28;20022;-48
2021/10/02 12:05:41;;;;;;;3.60;3.15;;;14.30;56.20;;;;;;5027046;28;20026;-47
2021/10/02 12:08:10;;;;;;;4.20;3.33;;;14.30;56.10;;;;;;5013380;28;20033;-48
2021/10/02 12:10:58;;;;;;;4.03;2.80;;;14.30;55.90;;;;;;5030170;28;20043;-47
2021/10/02 12:13:36;;;;;;;3.45;3.10;;;14.40;55.60;;;;;;5031696;28;20052;-47
2021/10/02 12:16:07;;;;;;;3.08;2.78;;;14.30;55.90;;;;;;5032781;28;20576;-47
2021/10/02 12:18:46;;;;;;;3.88;2.80;;;14.40;55.60;;;;;;5027231;28;20112;-47
2021/10/02 12:21:13;;;;;;;3.25;2.60;;;14.30;55.50;;;;;;5030958;28;20029;-47
2021/10/02 12:24:08;;;;;;;3.20;2.55;;;14.30;55.70;;;;;;5029633;28;20036;-47
2021/10/02 12:27:07;;;;;;;3.70;3.03;;;14.40;55.50;;;;;;5032037;28;20025;-47
2021/10/02 12:29:35;;;;;;;3.28;2.90;;;14.40;55.40;;;;;;5032391;28;20036;-47
2021/10/02 12:32:02;;;;;;;3.63;2.78;;;14.40;55.00;;;;;;5027108;28;20377;-47
2021/10/02 12:34:35;;;;;;;3.75;3.25;;;14.40;54.80;;;;;;5031810;28;20033;-47
2021/10/02 12:37:13;;;;;;;4.07;3.00;;;14.40;54.50;;;;;;5032327;28;20068;-47
2021/10/02 12:39:46;;;;;;;3.88;3.08;;;14.40;54.70;;;;;;5027171;28;20042;-48
2021/10/02 12:42:15;;;;;;;3.22;2.90;;;14.40;54.80;;;;;;5032492;28;20029;-47
2021/10/02 12:44:46;;;;;;;4.38;3.22;;;14.40;54.50;;;;;;5032101;28;20036;-47
2021/10/02 12:47:12;;;;;;;2.92;2.63;;;14.40;54.40;;;;;;5026750;28;20121;-47
2021/10/02 12:49:44;;;;;;;3.70;3.10;;;14.40;54.40;;;;;;5024418;28;20112;-47
2021/10/02 12:52:11;;;;;;;4.30;3.13;;;14.40;54.80;;;;;;5031309;28;20485;-47
2021/10/02 12:54:38;;;;;;;3.45;2.78;;;14.50;54.80;;;;;;5032372;28;20026;-47
2021/10/02 12:57:13;;;;;;;3.20;2.88;;;14.40;54.70;;;;;;5032752;28;20037;-47
2021/10/02 12:59:46;;;;;;;3.05;2.75;;;14.40;54.90;;;;;;5031789;28;20112;-47
2021/10/02 13:02:14;;;;;;;2.75;2.53;;;14.50;54.80;;;;;;5032580;28;20530;-47
2021/10/02 13:04:40;;;;;;;3.20;2.90;;;14.50;54.40;;;;;;5027855;28;20160;-47
2021/10/02 13:07:06;;;;;;;3.30;2.97;;;14.50;54.50;;;;;;5032791;28;20032;-47
2021/10/02 13:10:18;;;;;;;3.92;3.28;;;14.50;54.20;;;;;;5032405;28;20079;-47
2021/10/02 13:12:56;;;;;;;4.70;3.33;;;14.50;53.50;;;;;;5029366;28;20034;-47
2021/10/02 13:15:22;;;;;;;3.22;2.90;;;14.50;53.90;;;;;;5031543;28;20091;-47
2021/10/02 13:18:18;;;;;;;3.60;2.90;;;14.50;54.10;;;;;;5032562;28;20377;-47
2021/10/02 13:20:47;;;;;;;3.92;2.90;;;14.50;53.80;;;;;;5029042;28;20041;-47
2021/10/02 13:23:14;;;;;;;3.70;2.67;;;14.50;54.00;;;;;;5032415;28;20022;-48
2021/10/02 13:25:44;;;;;;;3.50;2.90;;;14.50;53.90;;;;;;5035264;28;20381;-47
2021/10/02 13:28:28;;;;;;;4.30;2.78;;;14.60;54.10;;;;;;5035319;28;20099;-47
2021/10/02 13:30:56;;;;;;;3.95;2.83;;;14.60;53.90;;;;;;5035318;28;20211;-48
2021/10/02 13:33:23;;;;;;;3.17;2.72;;;14.60;54.00;;;;;;5035930;28;20022;-47
2021/10/02 13:35:52;;;;;;;3.22;2.90;;;14.60;53.90;;;;;;5034661;28;20462;-46
2021/10/02 13:38:33;;;;;;;3.28;2.97;;;14.60;54.00;;;;;;5034505;28;20136;-47
2021/10/02 13:41:01;;;;;;;3.15;2.80;;;14.60;54.00;;;;;;5034237;28;20112;-47
2021/10/02 13:43:28;;;;;;;4.35;2.70;;;14.60;54.00;;;;;;5035669;28;20377;-47
2021/10/02 13:45:54;;;;;;;2.72;2.53;;;14.60;54.10;;;;;;5035662;28;20021;-46
2021/10/02 13:48:30;;;;;;;3.58;2.90;;;14.60;54.10;;;;;;5034555;28;20037;-47
2021/10/02 13:50:59;;;;;;;4.45;2.88;;;14.60;54.40;;;;;;5035144;28;20045;-47
2021/10/02 13:53:25;;;;;;;4.00;3.00;;;14.60;54.50;;;;;;5027795;28;20381;-46
2021/10/02 13:55:53;;;;;;;2.65;2.45;;;14.60;54.40;;;;;;5035194;28;20026;-46